sensor_id;sensor_type;location;lat;lon;timestamp;temperature;humidity
8095;DHT22;4090;49.270;8.696;2022-08-21T00:00:12;22.70;90.40
8095;DHT22;4090;49.270;8.696;2022-08-21T00:02:59;22.70;90.60
8095;DHT22;4090;49.270;8.696;2022-08-21T00:05:45;22.70;90.80
8095;DHT22;4090;49.270;8.696;2022-08-21T00:08:27;22.60;90.70
8095;DHT22;4090;49.270;8.696;2022-08-21T00:11:10;22.60;90.70
8095;DHT22;4090;49.270;8.696;2022-08-21T00:13:52;22.50;90.90
8095;DHT22;4090;49.270;8.696;2022-08-21T00:16:35;22.50;91.00
8095;DHT22;4090;49.270;8.696;2022-08-21T00:19:16;22.40;91.20
8095;DHT22;4090;49.270;8.696;2022-08-21T00:21:59;22.40;91.20
8095;DHT22;4090;49.270;8.696;2022-08-21T00:24:41;22.30;91.20
8095;DHT22;4090;49.270;8.696;2022-08-21T00:27:24;22.30;91.30
8095;DHT22;4090;49.270;8.696;2022-08-21T00:30:07;22.30;91.50
8095;DHT22;4090;49.270;8.696;2022-08-21T00:32:50;22.30;91.60
8095;DHT22;4090;49.270;8.696;2022-08-21T00:35:34;22.30;91.80
8095;DHT22;4090;49.270;8.696;2022-08-21T00:38:16;22.10;91.90
8095;DHT22;4090;49.270;8.696;2022-08-21T00:41:01;22.10;92.10
8095;DHT22;4090;49.270;8.696;2022-08-21T00:43:44;22.10;92.20
8095;DHT22;4090;49.270;8.696;2022-08-21T00:46:26;22.00;92.10
8095;DHT22;4090;49.270;8.696;2022-08-21T00:49:09;22.00;92.20
8095;DHT22;4090;49.270;8.696;2022-08-21T00:51:55;22.00;92.40
8095;DHT22;4090;49.270;8.696;2022-08-21T00:54:39;22.00;92.40
8095;DHT22;4090;49.270;8.696;2022-08-21T00:57:26;22.00;92.40
8095;DHT22;4090;49.270;8.696;2022-08-21T01:00:14;22.00;92.40
8095;DHT22;4090;49.270;8.696;2022-08-21T01:02:58;22.00;92.40
8095;DHT22;4090;49.270;8.696;2022-08-21T01:05:41;22.00;92.40
8095;DHT22;4090;49.270;8.696;2022-08-21T01:08:23;21.90;92.50
8095;DHT22;4090;49.270;8.696;2022-08-21T01:11:06;21.90;92.70
8095;DHT22;4090;49.270;8.696;2022-08-21T01:13:48;21.90;92.80
8095;DHT22;4090;49.270;8.696;2022-08-21T01:16:33;21.80;92.90
8095;DHT22;4090;49.270;8.696;2022-08-21T01:19:16;21.80;93.10
8095;DHT22;4090;49.270;8.696;2022-08-21T01:22:01;21.80;93.20
8095;DHT22;4090;49.270;8.696;2022-08-21T01:24:42;21.70;93.10
8095;DHT22;4090;49.270;8.696;2022-08-21T01:27:24;21.70;93.20
8095;DHT22;4090;49.270;8.696;2022-08-21T01:30:10;21.60;93.40
8095;DHT22;4090;49.270;8.696;2022-08-21T01:32:56;21.60;93.60
8095;DHT22;4090;49.270;8.696;2022-08-21T01:35:39;21.60;93.60
8095;DHT22;4090;49.270;8.696;2022-08-21T01:38:22;21.50;93.70
8095;DHT22;4090;49.270;8.696;2022-08-21T01:41:05;21.50;93.90
8095;DHT22;4090;49.270;8.696;2022-08-21T01:43:47;21.50;94.00
8095;DHT22;4090;49.270;8.696;2022-08-21T01:46:30;21.40;94.10
8095;DHT22;4090;49.270;8.696;2022-08-21T01:49:12;21.40;94.20
8095;DHT22;4090;49.270;8.696;2022-08-21T01:51:54;21.40;94.30
8095;DHT22;4090;49.270;8.696;2022-08-21T01:54:38;21.40;94.30
8095;DHT22;4090;49.270;8.696;2022-08-21T01:57:20;21.40;94.30
8095;DHT22;4090;49.270;8.696;2022-08-21T02:00:04;21.30;94.40
8095;DHT22;4090;49.270;8.696;2022-08-21T02:02:53;21.30;94.50
8095;DHT22;4090;49.270;8.696;2022-08-21T02:05:34;21.30;94.60
8095;DHT22;4090;49.270;8.696;2022-08-21T02:08:16;21.20;94.70
8095;DHT22;4090;49.270;8.696;2022-08-21T02:10:59;21.20;94.80
8095;DHT22;4090;49.270;8.696;2022-08-21T02:13:41;21.10;94.90
8095;DHT22;4090;49.270;8.696;2022-08-21T02:16:24;21.10;95.00
8095;DHT22;4090;49.270;8.696;2022-08-21T02:19:07;21.10;95.30
8095;DHT22;4090;49.270;8.696;2022-08-21T02:21:49;21.00;95.30
8095;DHT22;4090;49.270;8.696;2022-08-21T02:24:31;21.00;95.40
8095;DHT22;4090;49.270;8.696;2022-08-21T02:27:14;21.00;95.50
8095;DHT22;4090;49.270;8.696;2022-08-21T02:29:57;21.00;95.60
8095;DHT22;4090;49.270;8.696;2022-08-21T02:32:38;21.00;95.60
8095;DHT22;4090;49.270;8.696;2022-08-21T02:35:21;20.90;96.10
8095;DHT22;4090;49.270;8.696;2022-08-21T02:38:06;20.80;96.00
8095;DHT22;4090;49.270;8.696;2022-08-21T02:40:50;20.80;96.10
8095;DHT22;4090;49.270;8.696;2022-08-21T02:43:34;20.70;96.30
8095;DHT22;4090;49.270;8.696;2022-08-21T02:46:19;20.70;96.40
8095;DHT22;4090;49.270;8.696;2022-08-21T02:49:01;20.70;96.40
8095;DHT22;4090;49.270;8.696;2022-08-21T02:51:42;20.70;96.30
8095;DHT22;4090;49.270;8.696;2022-08-21T02:54:24;20.70;96.30
8095;DHT22;4090;49.270;8.696;2022-08-21T02:57:06;20.70;96.40
8095;DHT22;4090;49.270;8.696;2022-08-21T02:59:50;20.60;96.50
8095;DHT22;4090;49.270;8.696;2022-08-21T03:02:31;20.60;96.70
8095;DHT22;4090;49.270;8.696;2022-08-21T03:05:16;20.60;96.80
8095;DHT22;4090;49.270;8.696;2022-08-21T03:07:58;20.50;97.00
8095;DHT22;4090;49.270;8.696;2022-08-21T03:10:42;20.50;97.10
8095;DHT22;4090;49.270;8.696;2022-08-21T03:13:25;20.50;97.20
8095;DHT22;4090;49.270;8.696;2022-08-21T03:16:09;20.50;97.30
8095;DHT22;4090;49.270;8.696;2022-08-21T03:18:51;20.40;97.40
8095;DHT22;4090;49.270;8.696;2022-08-21T03:21:33;20.40;97.40
8095;DHT22;4090;49.270;8.696;2022-08-21T03:24:15;20.40;97.50
8095;DHT22;4090;49.270;8.696;2022-08-21T03:26:57;20.40;97.50
8095;DHT22;4090;49.270;8.696;2022-08-21T03:29:39;20.40;97.50
8095;DHT22;4090;49.270;8.696;2022-08-21T03:32:22;20.40;97.60
8095;DHT22;4090;49.270;8.696;2022-08-21T03:35:05;20.40;97.60
8095;DHT22;4090;49.270;8.696;2022-08-21T03:37:47;20.40;97.70
8095;DHT22;4090;49.270;8.696;2022-08-21T03:40:29;20.30;97.80
8095;DHT22;4090;49.270;8.696;2022-08-21T03:43:10;20.20;97.90
8095;DHT22;4090;49.270;8.696;2022-08-21T03:45:53;20.20;98.10
8095;DHT22;4090;49.270;8.696;2022-08-21T03:48:36;20.20;98.30
8095;DHT22;4090;49.270;8.696;2022-08-21T03:51:18;20.10;98.30
8095;DHT22;4090;49.270;8.696;2022-08-21T03:54:03;20.10;98.40
8095;DHT22;4090;49.270;8.696;2022-08-21T03:56:45;20.00;98.60
8095;DHT22;4090;49.270;8.696;2022-08-21T03:59:28;20.00;98.60
8095;DHT22;4090;49.270;8.696;2022-08-21T04:02:09;20.00;98.50
8095;DHT22;4090;49.270;8.696;2022-08-21T04:04:53;20.00;98.60
8095;DHT22;4090;49.270;8.696;2022-08-21T04:07:34;19.90;98.80
8095;DHT22;4090;49.270;8.696;2022-08-21T04:10:17;19.90;98.90
8095;DHT22;4090;49.270;8.696;2022-08-21T04:12:59;19.90;99.10
8095;DHT22;4090;49.270;8.696;2022-08-21T04:15:40;19.90;99.30
8095;DHT22;4090;49.270;8.696;2022-08-21T04:18:23;19.80;99.30
8095;DHT22;4090;49.270;8.696;2022-08-21T04:21:07;19.90;99.30
8095;DHT22;4090;49.270;8.696;2022-08-21T04:23:50;19.80;99.20
8095;DHT22;4090;49.270;8.696;2022-08-21T04:26:32;19.70;99.30
8095;DHT22;4090;49.270;8.696;2022-08-21T04:29:14;19.70;99.60
8095;DHT22;4090;49.270;8.696;2022-08-21T04:31:56;19.70;99.70
8095;DHT22;4090;49.270;8.696;2022-08-21T04:34:38;19.70;99.70
8095;DHT22;4090;49.270;8.696;2022-08-21T04:37:21;19.60;99.80
8095;DHT22;4090;49.270;8.696;2022-08-21T04:40:04;19.70;99.90
8095;DHT22;4090;49.270;8.696;2022-08-21T04:42:49;19.70;99.90
8095;DHT22;4090;49.270;8.696;2022-08-21T04:45:33;19.60;99.90
8095;DHT22;4090;49.270;8.696;2022-08-21T04:48:17;19.60;99.90
8095;DHT22;4090;49.270;8.696;2022-08-21T04:51:03;19.60;99.90
8095;DHT22;4090;49.270;8.696;2022-08-21T04:53:51;19.60;99.90
8095;DHT22;4090;49.270;8.696;2022-08-21T04:56:37;19.50;99.90
8095;DHT22;4090;49.270;8.696;2022-08-21T04:59:24;19.50;99.90
8095;DHT22;4090;49.270;8.696;2022-08-21T05:02:08;19.50;99.90
8095;DHT22;4090;49.270;8.696;2022-08-21T05:04:53;19.50;99.90
8095;DHT22;4090;49.270;8.696;2022-08-21T05:07:35;19.50;99.90
8095;DHT22;4090;49.270;8.696;2022-08-21T05:10:20;19.50;99.90
8095;DHT22;4090;49.270;8.696;2022-08-21T05:13:02;19.50;99.90
8095;DHT22;4090;49.270;8.696;2022-08-21T05:15:45;19.50;99.90
8095;DHT22;4090;49.270;8.696;2022-08-21T05:18:27;19.50;99.90
8095;DHT22;4090;49.270;8.696;2022-08-21T05:21:09;19.50;99.90
8095;DHT22;4090;49.270;8.696;2022-08-21T05:23:51;19.50;99.90
8095;DHT22;4090;49.270;8.696;2022-08-21T05:26:34;19.50;99.90
8095;DHT22;4090;49.270;8.696;2022-08-21T05:29:17;19.50;99.90
8095;DHT22;4090;49.270;8.696;2022-08-21T05:31:59;19.50;99.90
8095;DHT22;4090;49.270;8.696;2022-08-21T05:34:41;19.50;99.90
8095;DHT22;4090;49.270;8.696;2022-08-21T05:37:23;19.40;99.90
8095;DHT22;4090;49.270;8.696;2022-08-21T05:40:06;19.40;99.90
8095;DHT22;4090;49.270;8.696;2022-08-21T05:42:50;19.50;99.90
8095;DHT22;4090;49.270;8.696;2022-08-21T05:45:33;19.50;99.90
8095;DHT22;4090;49.270;8.696;2022-08-21T05:48:16;19.50;99.90
8095;DHT22;4090;49.270;8.696;2022-08-21T05:51:04;19.50;99.90
8095;DHT22;4090;49.270;8.696;2022-08-21T05:53:47;19.50;99.90
8095;DHT22;4090;49.270;8.696;2022-08-21T05:56:28;19.60;99.90
8095;DHT22;4090;49.270;8.696;2022-08-21T05:59:12;19.60;99.90
8095;DHT22;4090;49.270;8.696;2022-08-21T06:01:54;19.60;99.90
8095;DHT22;4090;49.270;8.696;2022-08-21T06:04:36;19.70;99.90
8095;DHT22;4090;49.270;8.696;2022-08-21T06:07:18;19.70;99.90
8095;DHT22;4090;49.270;8.696;2022-08-21T06:10:00;19.70;99.90
8095;DHT22;4090;49.270;8.696;2022-08-21T06:12:42;19.80;99.90
8095;DHT22;4090;49.270;8.696;2022-08-21T06:15:25;19.80;99.90
8095;DHT22;4090;49.270;8.696;2022-08-21T06:18:08;19.90;99.90
8095;DHT22;4090;49.270;8.696;2022-08-21T06:20:49;19.90;99.90
8095;DHT22;4090;49.270;8.696;2022-08-21T06:23:32;20.00;99.90
8095;DHT22;4090;49.270;8.696;2022-08-21T06:26:15;20.00;99.90
8095;DHT22;4090;49.270;8.696;2022-08-21T06:28:57;20.00;99.90
8095;DHT22;4090;49.270;8.696;2022-08-21T06:31:40;20.00;99.90
8095;DHT22;4090;49.270;8.696;2022-08-21T06:34:22;20.10;99.90
8095;DHT22;4090;49.270;8.696;2022-08-21T06:37:04;20.10;99.90
8095;DHT22;4090;49.270;8.696;2022-08-21T06:39:46;20.20;99.90
8095;DHT22;4090;49.270;8.696;2022-08-21T06:42:28;20.20;99.90
8095;DHT22;4090;49.270;8.696;2022-08-21T06:45:10;20.30;99.90
8095;DHT22;4090;49.270;8.696;2022-08-21T06:47:53;20.30;99.90
8095;DHT22;4090;49.270;8.696;2022-08-21T06:50:35;20.30;99.90
8095;DHT22;4090;49.270;8.696;2022-08-21T06:53:19;20.30;99.90
8095;DHT22;4090;49.270;8.696;2022-08-21T06:56:01;20.40;99.90
8095;DHT22;4090;49.270;8.696;2022-08-21T06:58:43;20.40;99.90
8095;DHT22;4090;49.270;8.696;2022-08-21T07:01:26;20.50;99.90
8095;DHT22;4090;49.270;8.696;2022-08-21T07:04:09;20.60;99.90
8095;DHT22;4090;49.270;8.696;2022-08-21T07:06:51;20.70;99.90
8095;DHT22;4090;49.270;8.696;2022-08-21T07:09:33;20.70;99.90
8095;DHT22;4090;49.270;8.696;2022-08-21T07:12:15;20.70;99.90
8095;DHT22;4090;49.270;8.696;2022-08-21T07:14:57;20.80;99.90
8095;DHT22;4090;49.270;8.696;2022-08-21T07:17:39;20.80;99.90
8095;DHT22;4090;49.270;8.696;2022-08-21T07:20:22;20.80;99.90
8095;DHT22;4090;49.270;8.696;2022-08-21T07:23:06;20.80;99.90
8095;DHT22;4090;49.270;8.696;2022-08-21T07:25:49;20.90;99.90
8095;DHT22;4090;49.270;8.696;2022-08-21T07:28:31;20.90;99.90
8095;DHT22;4090;49.270;8.696;2022-08-21T07:31:14;20.90;99.90
8095;DHT22;4090;49.270;8.696;2022-08-21T07:33:57;20.90;99.90
8095;DHT22;4090;49.270;8.696;2022-08-21T07:36:40;21.00;99.90
8095;DHT22;4090;49.270;8.696;2022-08-21T07:39:22;21.00;99.90
8095;DHT22;4090;49.270;8.696;2022-08-21T07:42:04;21.00;99.90
8095;DHT22;4090;49.270;8.696;2022-08-21T07:44:46;21.00;99.90
8095;DHT22;4090;49.270;8.696;2022-08-21T07:47:27;21.10;99.90
8095;DHT22;4090;49.270;8.696;2022-08-21T07:50:10;21.10;99.90
8095;DHT22;4090;49.270;8.696;2022-08-21T07:52:54;21.10;99.90
8095;DHT22;4090;49.270;8.696;2022-08-21T07:55:35;21.20;99.90
8095;DHT22;4090;49.270;8.696;2022-08-21T07:58:17;21.20;99.90
8095;DHT22;4090;49.270;8.696;2022-08-21T08:00:59;21.30;99.90
8095;DHT22;4090;49.270;8.696;2022-08-21T08:03:42;21.30;99.90
8095;DHT22;4090;49.270;8.696;2022-08-21T08:06:24;21.30;99.90
8095;DHT22;4090;49.270;8.696;2022-08-21T08:09:07;21.40;99.90
8095;DHT22;4090;49.270;8.696;2022-08-21T08:11:50;21.40;99.90
8095;DHT22;4090;49.270;8.696;2022-08-21T08:14:32;21.50;99.90
8095;DHT22;4090;49.270;8.696;2022-08-21T08:17:14;21.50;99.90
8095;DHT22;4090;49.270;8.696;2022-08-21T08:19:56;21.60;99.90
8095;DHT22;4090;49.270;8.696;2022-08-21T08:22:38;21.60;99.90
8095;DHT22;4090;49.270;8.696;2022-08-21T08:25:23;21.60;99.90
8095;DHT22;4090;49.270;8.696;2022-08-21T08:28:06;21.70;99.90
8095;DHT22;4090;49.270;8.696;2022-08-21T08:30:48;21.70;99.90
8095;DHT22;4090;49.270;8.696;2022-08-21T08:33:30;21.80;99.90
8095;DHT22;4090;49.270;8.696;2022-08-21T08:36:14;21.80;99.90
8095;DHT22;4090;49.270;8.696;2022-08-21T08:38:56;21.80;99.90
8095;DHT22;4090;49.270;8.696;2022-08-21T08:41:40;21.90;99.90
8095;DHT22;4090;49.270;8.696;2022-08-21T08:44:22;21.90;99.90
8095;DHT22;4090;49.270;8.696;2022-08-21T08:47:05;22.00;99.90
8095;DHT22;4090;49.270;8.696;2022-08-21T08:50:00;22.00;99.90
8095;DHT22;4090;49.270;8.696;2022-08-21T08:52:47;22.10;99.90
8095;DHT22;4090;49.270;8.696;2022-08-21T08:55:35;22.10;99.90
8095;DHT22;4090;49.270;8.696;2022-08-21T08:58:22;22.20;99.90
8095;DHT22;4090;49.270;8.696;2022-08-21T09:01:11;22.20;99.90
8095;DHT22;4090;49.270;8.696;2022-08-21T09:03:56;22.20;99.90
8095;DHT22;4090;49.270;8.696;2022-08-21T09:06:57;22.30;99.90
8095;DHT22;4090;49.270;8.696;2022-08-21T09:09:51;22.40;99.50
8095;DHT22;4090;49.270;8.696;2022-08-21T09:12:49;22.40;98.80
8095;DHT22;4090;49.270;8.696;2022-08-21T09:15:39;22.50;98.10
8095;DHT22;4090;49.270;8.696;2022-08-21T09:18:33;22.50;98.60
8095;DHT22;4090;49.270;8.696;2022-08-21T09:21:24;22.60;97.70
8095;DHT22;4090;49.270;8.696;2022-08-21T09:24:24;22.60;97.30
8095;DHT22;4090;49.270;8.696;2022-08-21T09:27:09;22.70;97.60
8095;DHT22;4090;49.270;8.696;2022-08-21T09:29:53;22.70;97.00
8095;DHT22;4090;49.270;8.696;2022-08-21T09:32:38;22.70;97.00
8095;DHT22;4090;49.270;8.696;2022-08-21T09:35:21;22.80;95.60
8095;DHT22;4090;49.270;8.696;2022-08-21T09:38:06;22.90;95.20
8095;DHT22;4090;49.270;8.696;2022-08-21T09:40:56;23.00;95.00
8095;DHT22;4090;49.270;8.696;2022-08-21T09:43:39;23.00;95.30
8095;DHT22;4090;49.270;8.696;2022-08-21T09:46:22;23.00;95.30
8095;DHT22;4090;49.270;8.696;2022-08-21T09:49:06;23.10;95.30
8095;DHT22;4090;49.270;8.696;2022-08-21T09:51:50;23.10;94.00
8095;DHT22;4090;49.270;8.696;2022-08-21T09:54:38;23.20;92.40
8095;DHT22;4090;49.270;8.696;2022-08-21T09:57:24;23.30;91.80
8095;DHT22;4090;49.270;8.696;2022-08-21T10:00:29;23.40;92.00
8095;DHT22;4090;49.270;8.696;2022-08-21T10:03:15;23.40;91.60
8095;DHT22;4090;49.270;8.696;2022-08-21T10:06:02;23.50;91.30
8095;DHT22;4090;49.270;8.696;2022-08-21T10:08:45;23.60;91.80
8095;DHT22;4090;49.270;8.696;2022-08-21T10:11:28;23.70;91.70
8095;DHT22;4090;49.270;8.696;2022-08-21T10:14:30;23.70;91.80
8095;DHT22;4090;49.270;8.696;2022-08-21T10:17:22;23.80;91.40
8095;DHT22;4090;49.270;8.696;2022-08-21T10:20:14;23.90;90.30
8095;DHT22;4090;49.270;8.696;2022-08-21T10:23:07;24.10;89.50
8095;DHT22;4090;49.270;8.696;2022-08-21T10:25:58;24.20;88.70
8095;DHT22;4090;49.270;8.696;2022-08-21T10:28:47;24.30;87.30
8095;DHT22;4090;49.270;8.696;2022-08-21T10:31:37;24.40;86.50
8095;DHT22;4090;49.270;8.696;2022-08-21T10:34:32;24.60;87.60
8095;DHT22;4090;49.270;8.696;2022-08-21T10:37:23;24.70;87.30
8095;DHT22;4090;49.270;8.696;2022-08-21T10:40:15;24.90;86.50
8095;DHT22;4090;49.270;8.696;2022-08-21T10:43:16;25.00;82.90
8095;DHT22;4090;49.270;8.696;2022-08-21T10:46:06;25.00;82.50
8095;DHT22;4090;49.270;8.696;2022-08-21T10:48:53;25.20;81.60
8095;DHT22;4090;49.270;8.696;2022-08-21T10:51:56;25.30;81.10
8095;DHT22;4090;49.270;8.696;2022-08-21T10:54:48;25.50;80.70
8095;DHT22;4090;49.270;8.696;2022-08-21T10:57:41;25.60;79.10
8095;DHT22;4090;49.270;8.696;2022-08-21T11:00:29;25.80;79.00
8095;DHT22;4090;49.270;8.696;2022-08-21T11:03:18;26.00;78.90
8095;DHT22;4090;49.270;8.696;2022-08-21T11:06:06;26.10;78.40
8095;DHT22;4090;49.270;8.696;2022-08-21T11:08:53;26.30;78.60
8095;DHT22;4090;49.270;8.696;2022-08-21T11:11:41;26.50;76.10
8095;DHT22;4090;49.270;8.696;2022-08-21T11:14:34;26.50;74.00
8095;DHT22;4090;49.270;8.696;2022-08-21T11:17:22;26.70;73.20
8095;DHT22;4090;49.270;8.696;2022-08-21T11:20:12;26.80;71.60
8095;DHT22;4090;49.270;8.696;2022-08-21T11:23:00;27.00;71.30
8095;DHT22;4090;49.270;8.696;2022-08-21T11:25:47;27.30;71.70
8095;DHT22;4090;49.270;8.696;2022-08-21T11:28:34;27.40;71.20
8095;DHT22;4090;49.270;8.696;2022-08-21T11:31:30;27.60;70.80
8095;DHT22;4090;49.270;8.696;2022-08-21T11:34:24;27.80;69.70
8095;DHT22;4090;49.270;8.696;2022-08-21T11:37:17;28.00;69.90
8095;DHT22;4090;49.270;8.696;2022-08-21T11:40:05;28.10;68.60
8095;DHT22;4090;49.270;8.696;2022-08-21T11:42:57;28.20;68.20
8095;DHT22;4090;49.270;8.696;2022-08-21T11:45:45;28.40;67.40
8095;DHT22;4090;49.270;8.696;2022-08-21T11:48:39;28.50;68.00
8095;DHT22;4090;49.270;8.696;2022-08-21T11:51:27;28.60;66.10
8095;DHT22;4090;49.270;8.696;2022-08-21T11:54:20;28.80;64.70
8095;DHT22;4090;49.270;8.696;2022-08-21T11:57:08;28.90;64.30
8095;DHT22;4090;49.270;8.696;2022-08-21T11:59:58;29.00;65.60
8095;DHT22;4090;49.270;8.696;2022-08-21T12:02:49;29.10;63.40
8095;DHT22;4090;49.270;8.696;2022-08-21T12:05:35;29.20;63.00
8095;DHT22;4090;49.270;8.696;2022-08-21T12:08:28;29.30;64.60
8095;DHT22;4090;49.270;8.696;2022-08-21T12:11:23;29.40;64.00
8095;DHT22;4090;49.270;8.696;2022-08-21T12:14:14;29.50;62.30
8095;DHT22;4090;49.270;8.696;2022-08-21T12:17:04;29.60;61.60
8095;DHT22;4090;49.270;8.696;2022-08-21T12:19:57;29.70;59.60
8095;DHT22;4090;49.270;8.696;2022-08-21T12:22:41;29.80;59.10
8095;DHT22;4090;49.270;8.696;2022-08-21T12:25:23;30.00;58.20
8095;DHT22;4090;49.270;8.696;2022-08-21T12:28:08;30.10;57.70
8095;DHT22;4090;49.270;8.696;2022-08-21T12:30:51;30.30;56.60
8095;DHT22;4090;49.270;8.696;2022-08-21T12:33:36;30.40;56.80
8095;DHT22;4090;49.270;8.696;2022-08-21T12:36:23;30.40;57.60
8095;DHT22;4090;49.270;8.696;2022-08-21T12:39:12;30.50;58.00
8095;DHT22;4090;49.270;8.696;2022-08-21T12:41:59;30.50;56.30
8095;DHT22;4090;49.270;8.696;2022-08-21T12:44:45;30.60;54.90
8095;DHT22;4090;49.270;8.696;2022-08-21T12:47:34;30.60;54.10
8095;DHT22;4090;49.270;8.696;2022-08-21T12:50:20;30.70;53.60
8095;DHT22;4090;49.270;8.696;2022-08-21T12:53:07;30.70;54.00
8095;DHT22;4090;49.270;8.696;2022-08-21T12:55:52;30.80;53.30
8095;DHT22;4090;49.270;8.696;2022-08-21T12:58:35;30.80;53.50
8095;DHT22;4090;49.270;8.696;2022-08-21T13:01:22;30.80;52.70
8095;DHT22;4090;49.270;8.696;2022-08-21T13:04:09;30.90;53.30
8095;DHT22;4090;49.270;8.696;2022-08-21T13:06:54;30.90;54.00
8095;DHT22;4090;49.270;8.696;2022-08-21T13:09:44;31.00;52.90
8095;DHT22;4090;49.270;8.696;2022-08-21T13:12:29;31.00;52.80
8095;DHT22;4090;49.270;8.696;2022-08-21T13:15:12;31.10;52.10
8095;DHT22;4090;49.270;8.696;2022-08-21T13:17:55;31.20;52.10
8095;DHT22;4090;49.270;8.696;2022-08-21T13:20:42;31.30;53.40
8095;DHT22;4090;49.270;8.696;2022-08-21T13:23:27;31.30;51.80
8095;DHT22;4090;49.270;8.696;2022-08-21T13:26:13;31.30;50.50
8095;DHT22;4090;49.270;8.696;2022-08-21T13:29:06;31.40;50.00
8095;DHT22;4090;49.270;8.696;2022-08-21T13:31:54;31.40;50.20
8095;DHT22;4090;49.270;8.696;2022-08-21T13:34:37;31.40;49.70
8095;DHT22;4090;49.270;8.696;2022-08-21T13:37:20;31.50;49.80
8095;DHT22;4090;49.270;8.696;2022-08-21T13:40:07;31.50;49.60
8095;DHT22;4090;49.270;8.696;2022-08-21T13:42:51;31.70;50.00
8095;DHT22;4090;49.270;8.696;2022-08-21T13:45:34;31.70;50.50
8095;DHT22;4090;49.270;8.696;2022-08-21T13:48:17;31.80;50.00
8095;DHT22;4090;49.270;8.696;2022-08-21T13:50:59;31.80;48.80
8095;DHT22;4090;49.270;8.696;2022-08-21T13:53:46;31.90;49.00
8095;DHT22;4090;49.270;8.696;2022-08-21T13:56:41;32.00;49.30
8095;DHT22;4090;49.270;8.696;2022-08-21T13:59:26;32.10;49.90
8095;DHT22;4090;49.270;8.696;2022-08-21T14:02:13;32.20;50.60
8095;DHT22;4090;49.270;8.696;2022-08-21T14:04:57;32.30;51.00
8095;DHT22;4090;49.270;8.696;2022-08-21T14:07:41;32.30;49.20
8095;DHT22;4090;49.270;8.696;2022-08-21T14:10:23;32.40;49.10
8095;DHT22;4090;49.270;8.696;2022-08-21T14:13:29;32.40;49.60
8095;DHT22;4090;49.270;8.696;2022-08-21T14:16:17;32.50;50.70
8095;DHT22;4090;49.270;8.696;2022-08-21T14:19:10;32.40;48.30
8095;DHT22;4090;49.270;8.696;2022-08-21T14:21:52;32.20;47.70
8095;DHT22;4090;49.270;8.696;2022-08-21T14:24:39;32.20;47.10
8095;DHT22;4090;49.270;8.696;2022-08-21T14:27:23;32.10;46.50
8095;DHT22;4090;49.270;8.696;2022-08-21T14:30:11;32.20;46.80
8095;DHT22;4090;49.270;8.696;2022-08-21T14:32:53;32.20;46.70
8095;DHT22;4090;49.270;8.696;2022-08-21T14:35:36;32.20;46.60
8095;DHT22;4090;49.270;8.696;2022-08-21T14:38:22;32.30;47.50
8095;DHT22;4090;49.270;8.696;2022-08-21T14:41:13;32.30;47.60
8095;DHT22;4090;49.270;8.696;2022-08-21T14:43:57;32.40;47.20
8095;DHT22;4090;49.270;8.696;2022-08-21T14:46:39;32.40;46.70
8095;DHT22;4090;49.270;8.696;2022-08-21T14:49:21;32.50;46.10
8095;DHT22;4090;49.270;8.696;2022-08-21T14:52:04;32.50;46.20
8095;DHT22;4090;49.270;8.696;2022-08-21T14:54:46;32.60;44.70
8095;DHT22;4090;49.270;8.696;2022-08-21T14:57:30;32.60;44.40
8095;DHT22;4090;49.270;8.696;2022-08-21T15:00:14;32.50;43.10
8095;DHT22;4090;49.270;8.696;2022-08-21T15:02:57;32.40;42.90
8095;DHT22;4090;49.270;8.696;2022-08-21T15:05:39;32.40;42.30
8095;DHT22;4090;49.270;8.696;2022-08-21T15:08:22;32.30;42.10
8095;DHT22;4090;49.270;8.696;2022-08-21T15:11:05;32.40;42.30
8095;DHT22;4090;49.270;8.696;2022-08-21T15:13:52;32.40;42.70
8095;DHT22;4090;49.270;8.696;2022-08-21T15:16:35;32.40;43.00
8095;DHT22;4090;49.270;8.696;2022-08-21T15:19:17;32.40;42.60
8095;DHT22;4090;49.270;8.696;2022-08-21T15:21:59;32.40;42.50
8095;DHT22;4090;49.270;8.696;2022-08-21T15:24:42;32.50;41.80
8095;DHT22;4090;49.270;8.696;2022-08-21T15:27:24;32.40;41.90
8095;DHT22;4090;49.270;8.696;2022-08-21T15:30:07;32.40;42.50
8095;DHT22;4090;49.270;8.696;2022-08-21T15:32:49;32.50;42.70
8095;DHT22;4090;49.270;8.696;2022-08-21T15:35:31;32.50;43.40
8095;DHT22;4090;49.270;8.696;2022-08-21T15:38:13;32.50;43.60
8095;DHT22;4090;49.270;8.696;2022-08-21T15:40:57;32.60;44.50
8095;DHT22;4090;49.270;8.696;2022-08-21T15:43:43;32.60;44.20
8095;DHT22;4090;49.270;8.696;2022-08-21T15:46:26;32.60;45.20
8095;DHT22;4090;49.270;8.696;2022-08-21T15:49:08;32.70;45.80
8095;DHT22;4090;49.270;8.696;2022-08-21T15:51:50;32.70;45.80
8095;DHT22;4090;49.270;8.696;2022-08-21T15:54:32;32.70;44.10
8095;DHT22;4090;49.270;8.696;2022-08-21T15:57:18;32.80;44.10
8095;DHT22;4090;49.270;8.696;2022-08-21T16:00:04;32.80;44.60
8095;DHT22;4090;49.270;8.696;2022-08-21T16:02:55;32.80;44.10
8095;DHT22;4090;49.270;8.696;2022-08-21T16:05:38;32.80;44.60
8095;DHT22;4090;49.270;8.696;2022-08-21T16:08:20;32.80;43.80
8095;DHT22;4090;49.270;8.696;2022-08-21T16:11:02;32.80;44.70
8095;DHT22;4090;49.270;8.696;2022-08-21T16:13:46;32.80;45.90
8095;DHT22;4090;49.270;8.696;2022-08-21T16:16:30;32.80;45.50
8095;DHT22;4090;49.270;8.696;2022-08-21T16:19:15;32.80;45.80
8095;DHT22;4090;49.270;8.696;2022-08-21T16:21:57;32.80;47.60
8095;DHT22;4090;49.270;8.696;2022-08-21T16:24:39;32.80;46.90
8095;DHT22;4090;49.270;8.696;2022-08-21T16:27:20;32.70;47.40
8095;DHT22;4090;49.270;8.696;2022-08-21T16:30:06;32.70;47.20
8095;DHT22;4090;49.270;8.696;2022-08-21T16:32:48;32.70;47.80
8095;DHT22;4090;49.270;8.696;2022-08-21T16:35:30;32.70;47.70
8095;DHT22;4090;49.270;8.696;2022-08-21T16:38:12;32.60;47.40
8095;DHT22;4090;49.270;8.696;2022-08-21T16:40:55;32.60;48.30
8095;DHT22;4090;49.270;8.696;2022-08-21T16:43:38;32.60;48.20
8095;DHT22;4090;49.270;8.696;2022-08-21T16:46:22;32.50;48.00
8095;DHT22;4090;49.270;8.696;2022-08-21T16:49:04;32.50;47.80
8095;DHT22;4090;49.270;8.696;2022-08-21T16:51:46;32.40;47.70
8095;DHT22;4090;49.270;8.696;2022-08-21T16:54:28;32.40;47.40
8095;DHT22;4090;49.270;8.696;2022-08-21T16:57:10;32.30;48.20
8095;DHT22;4090;49.270;8.696;2022-08-21T16:59:52;32.30;49.00
8095;DHT22;4090;49.270;8.696;2022-08-21T17:02:38;32.20;49.20
8095;DHT22;4090;49.270;8.696;2022-08-21T17:05:20;32.20;49.80
8095;DHT22;4090;49.270;8.696;2022-08-21T17:08:02;32.10;50.30
8095;DHT22;4090;49.270;8.696;2022-08-21T17:10:47;32.10;49.90
8095;DHT22;4090;49.270;8.696;2022-08-21T17:13:29;32.00;50.50
8095;DHT22;4090;49.270;8.696;2022-08-21T17:16:11;32.00;51.10
8095;DHT22;4090;49.270;8.696;2022-08-21T17:18:55;31.90;51.20
8095;DHT22;4090;49.270;8.696;2022-08-21T17:21:37;31.80;51.70
8095;DHT22;4090;49.270;8.696;2022-08-21T17:24:19;31.70;51.80
8095;DHT22;4090;49.270;8.696;2022-08-21T17:27:01;31.70;51.80
8095;DHT22;4090;49.270;8.696;2022-08-21T17:29:44;31.60;51.70
8095;DHT22;4090;49.270;8.696;2022-08-21T17:32:25;31.60;52.00
8095;DHT22;4090;49.270;8.696;2022-08-21T17:35:09;31.40;51.90
8095;DHT22;4090;49.270;8.696;2022-08-21T17:37:52;31.40;52.50
8095;DHT22;4090;49.270;8.696;2022-08-21T17:40:34;31.30;52.80
8095;DHT22;4090;49.270;8.696;2022-08-21T17:43:17;31.20;52.90
8095;DHT22;4090;49.270;8.696;2022-08-21T17:45:59;31.10;53.10
8095;DHT22;4090;49.270;8.696;2022-08-21T17:48:40;31.00;53.80
8095;DHT22;4090;49.270;8.696;2022-08-21T17:51:24;30.90;53.80
8095;DHT22;4090;49.270;8.696;2022-08-21T17:54:05;30.80;54.00